Weather at Columbus Air Force Base

Public forecast

Using degrees Fahrenheit for public forecast. Weather courtesy of forecast.io.

Current aviation weather report (METAR) for Columbus Air Force Base

2024/05/28 20:55 (retrieved 2 hours ago)

KCBM 282055Z 34008KT 10SM FEW200 32/12 A3000 RMK AO2A SLP159 T03210123 55013

Aviation forecast (TAF) for Columbus Air Force Base

2024/05/28 17:51 (retrieved 5 hours ago)

TAF TAF KCBM 281700Z 2817/2923 31006KT 9999 FEW045 SCT270 QNH3000INS TEMPO 2817/2822 31010G15KT BECMG 2821/2822 31006KT 9999 FEW270 QNH3000INS BECMG 2909/2910 VRB05KT 9999 SCT120 QNH3000INS BECMG 2913/2914 VRB05KT 9999 BKN080 QNH3005INS TX33/2820Z TN19/2911Z